Terminal Aerodrome Forecast
Issued by NWS

Home | Current Version | Previous Version | Text Only | Print | Product List | Glossary On
Versions: 1 2 3 4 5 6 7 8 9 10 11 12 13 14
214
FTUS45 KVEF 270918 AAA
TAFHND
TAF AMD
KHND 270918Z 2709/2806 21015KT P6SM BKN110
     FM271000 03014G24KT P6SM VCTS BKN120CB
     FM271800 10006KT P6SM SCT120 BKN150 PROB30 2720/2724 VRB15G25KT
      -TSRA BKN100CB
     FM280300 18012KT P6SM SCT120=

USA.gov is the U.S. government's official web portal to all federal, state and local government web resources and services.